• Guest, pentru o varianta fara reclame a forumului oferim conturi premium. Mai multe detalii aici.

Probleme la Otopeni din cauza vizibilității reduse; mai multe zboruri au fost redirecționate către alte aeroporturi

newsbot

Member
Ceața a dat în această dimineață peste cap nu doar traficul de pe drumurile din zona capitalei ci și pe cel aerian. Mai multe zboruri care au ca destinație București zboară în jurul capitalei de zeci de minute sau au fost redirecționate către alte aeroporturi din zonă. Trei aeronave TAROM au fost redirecționate către aeroportul din Constanța și Sibiu, un zbor Wizzair se îndreaptă și el către Constanța. Singurul zbor care a aterizat în ultima oră la Otopeni este cel efectuat de Qatar Airways cu un Airbus A321 pe ruta Doha – București. La această oră, potrivit datelor furnizate de aeroport, vizibilitatea este sub 1000 de metri. METAR LROP 060900Z 07003KT 020V100 0100 R08R/0200N R26L/0200N FZFG VV001 M01/M02 Q1023 R08R/19//95 […]

Continue reading...
 
Top